sensor_id;sensor_type;location;lat;lon;timestamp;P1;P2;P0
65556;PMS3003;52200;53.490;14.376;2024-03-07T00:02:13;32.25;18.00;10.50
65556;PMS3003;52200;53.490;14.376;2024-03-07T00:04:39;31.80;18.40;10.00
65556;PMS3003;52200;53.490;14.376;2024-03-07T00:07:04;28.50;19.25;11.00
65556;PMS3003;52200;53.490;14.376;2024-03-07T00:09:32;27.40;17.80;10.80
65556;PMS3003;52200;53.490;14.376;2024-03-07T00:11:59;28.20;14.80;9.20
65556;PMS3003;52200;53.490;14.376;2024-03-07T00:14:25;26.20;16.40;10.00
65556;PMS3003;52200;53.490;14.376;2024-03-07T00:16:55;32.40;17.60;8.80
65556;PMS3003;52200;53.490;14.376;2024-03-07T00:19:21;27.80;14.00;7.80
65556;PMS3003;52200;53.490;14.376;2024-03-07T00:21:46;22.50;14.75;8.00
65556;PMS3003;52200;53.490;14.376;2024-03-07T00:24:13;24.40;15.20;8.00
65556;PMS3003;52200;53.490;14.376;2024-03-07T00:26:41;26.60;13.40;7.60
65556;PMS3003;52200;53.490;14.376;2024-03-07T00:29:07;25.50;14.25;8.25
65556;PMS3003;52200;53.490;14.376;2024-03-07T00:31:32;26.75;16.50;8.75
65556;PMS3003;52200;53.490;14.376;2024-03-07T00:33:58;24.80;15.60;9.60
65556;PMS3003;52200;53.490;14.376;2024-03-07T00:36:24;25.40;14.60;7.80
65556;PMS3003;52200;53.490;14.376;2024-03-07T00:38:51;28.00;16.00;9.00
65556;PMS3003;52200;53.490;14.376;2024-03-07T00:41:17;25.80;13.80;7.00
65556;PMS3003;52200;53.490;14.376;2024-03-07T00:43:42;23.75;14.50;8.00
65556;PMS3003;52200;53.490;14.376;2024-03-07T00:46:08;26.75;15.00;9.25
65556;PMS3003;52200;53.490;14.376;2024-03-07T00:48:36;28.40;17.40;9.60
65556;PMS3003;52200;53.490;14.376;2024-03-07T00:51:02;28.00;20.40;11.00
65556;PMS3003;52200;53.490;14.376;2024-03-07T00:53:29;26.60;17.20;10.80
65556;PMS3003;52200;53.490;14.376;2024-03-07T00:55:55;27.20;17.80;10.00
65556;PMS3003;52200;53.490;14.376;2024-03-07T00:58:20;34.75;19.75;10.75
65556;PMS3003;52200;53.490;14.376;2024-03-07T01:00:46;35.50;21.00;13.00
65556;PMS3003;52200;53.490;14.376;2024-03-07T01:03:12;43.50;24.25;12.50
65556;PMS3003;52200;53.490;14.376;2024-03-07T01:05:39;34.80;22.00;10.40
65556;PMS3003;52200;53.490;14.376;2024-03-07T01:08:07;40.00;22.60;13.40
65556;PMS3003;52200;53.490;14.376;2024-03-07T01:10:32;37.25;26.25;13.75
65556;PMS3003;52200;53.490;14.376;2024-03-07T01:12:58;39.20;25.60;12.00
65556;PMS3003;52200;53.490;14.376;2024-03-07T01:15:30;45.20;25.60;13.20
65556;PMS3003;52200;53.490;14.376;2024-03-07T01:17:55;36.80;23.40;12.80
65556;PMS3003;52200;53.490;14.376;2024-03-07T01:20:21;26.40;17.20;10.80
65556;PMS3003;52200;53.490;14.376;2024-03-07T01:22:50;34.80;22.00;10.40
65556;PMS3003;52200;53.490;14.376;2024-03-07T01:25:16;34.60;19.60;10.60
65556;PMS3003;52200;53.490;14.376;2024-03-07T01:27:42;37.80;20.60;12.60
65556;PMS3003;52200;53.490;14.376;2024-03-07T01:30:08;37.00;22.75;13.00
65556;PMS3003;52200;53.490;14.376;2024-03-07T01:32:34;32.80;23.40;13.20
65556;PMS3003;52200;53.490;14.376;2024-03-07T01:34:59;44.00;25.75;16.00
65556;PMS3003;52200;53.490;14.376;2024-03-07T01:37:25;44.20;22.60;11.00
65556;PMS3003;52200;53.490;14.376;2024-03-07T01:39:51;39.40;23.00;13.00
65556;PMS3003;52200;53.490;14.376;2024-03-07T01:42:17;35.00;21.25;12.25
65556;PMS3003;52200;53.490;14.376;2024-03-07T01:44:42;38.00;24.75;12.25
65556;PMS3003;52200;53.490;14.376;2024-03-07T01:47:09;34.20;19.80;11.00
65556;PMS3003;52200;53.490;14.376;2024-03-07T01:49:35;30.80;19.20;11.20
65556;PMS3003;52200;53.490;14.376;2024-03-07T01:52:01;32.40;18.40;10.80
65556;PMS3003;52200;53.490;14.376;2024-03-07T01:54:30;32.40;19.40;10.00
65556;PMS3003;52200;53.490;14.376;2024-03-07T01:56:56;31.60;19.60;10.00
65556;PMS3003;52200;53.490;14.376;2024-03-07T01:59:23;35.00;23.00;11.40
65556;PMS3003;52200;53.490;14.376;2024-03-07T02:01:49;38.00;27.20;15.40
65556;PMS3003;52200;53.490;14.376;2024-03-07T02:04:15;36.40;23.80;13.00
65556;PMS3003;52200;53.490;14.376;2024-03-07T02:06:41;44.00;28.00;16.00
65556;PMS3003;52200;53.490;14.376;2024-03-07T02:09:07;39.00;24.00;14.00
65556;PMS3003;52200;53.490;14.376;2024-03-07T02:11:32;35.00;22.75;14.00
65556;PMS3003;52200;53.490;14.376;2024-03-07T02:13:58;36.25;23.00;14.75
65556;PMS3003;52200;53.490;14.376;2024-03-07T02:16:24;44.80;28.20;13.60
65556;PMS3003;52200;53.490;14.376;2024-03-07T02:18:49;33.75;22.00;10.75
65556;PMS3003;52200;53.490;14.376;2024-03-07T02:21:16;27.25;18.00;10.25
65556;PMS3003;52200;53.490;14.376;2024-03-07T02:23:41;40.20;23.20;13.40
65556;PMS3003;52200;53.490;14.376;2024-03-07T02:26:06;39.00;19.75;12.00
65556;PMS3003;52200;53.490;14.376;2024-03-07T02:28:33;42.40;26.60;16.80
65556;PMS3003;52200;53.490;14.376;2024-03-07T02:30:59;35.40;22.60;11.00
65556;PMS3003;52200;53.490;14.376;2024-03-07T02:33:25;36.00;20.50;11.25
65556;PMS3003;52200;53.490;14.376;2024-03-07T02:35:51;38.00;19.00;12.25
65556;PMS3003;52200;53.490;14.376;2024-03-07T02:38:16;33.25;22.25;13.25
65556;PMS3003;52200;53.490;14.376;2024-03-07T02:40:42;44.20;24.60;13.40
65556;PMS3003;52200;53.490;14.376;2024-03-07T02:43:08;50.50;28.00;13.75
65556;PMS3003;52200;53.490;14.376;2024-03-07T02:45:33;45.25;30.75;16.25
65556;PMS3003;52200;53.490;14.376;2024-03-07T02:47:59;38.75;25.75;13.75
65556;PMS3003;52200;53.490;14.376;2024-03-07T02:50:24;35.25;19.00;12.00
65556;PMS3003;52200;53.490;14.376;2024-03-07T02:52:50;31.50;20.50;11.75
65556;PMS3003;52200;53.490;14.376;2024-03-07T02:55:17;33.60;18.60;11.80
65556;PMS3003;52200;53.490;14.376;2024-03-07T02:57:44;33.60;21.60;10.00
65556;PMS3003;52200;53.490;14.376;2024-03-07T03:00:10;39.80;26.20;14.60
65556;PMS3003;52200;53.490;14.376;2024-03-07T03:02:48;46.20;29.40;16.80
65556;PMS3003;52200;53.490;14.376;2024-03-07T03:05:14;45.40;23.80;15.40
65556;PMS3003;52200;53.490;14.376;2024-03-07T03:07:40;48.80;27.60;16.00
65556;PMS3003;52200;53.490;14.376;2024-03-07T03:10:06;51.20;27.80;16.00
65556;PMS3003;52200;53.490;14.376;2024-03-07T03:12:35;41.00;25.40;17.60
65556;PMS3003;52200;53.490;14.376;2024-03-07T03:15:04;37.20;23.80;13.40
65556;PMS3003;52200;53.490;14.376;2024-03-07T03:17:32;53.00;27.60;15.40
65556;PMS3003;52200;53.490;14.376;2024-03-07T03:19:57;39.00;21.50;13.00
65556;PMS3003;52200;53.490;14.376;2024-03-07T03:22:22;37.25;18.50;11.00
65556;PMS3003;52200;53.490;14.376;2024-03-07T03:24:48;36.00;22.50;14.25
65556;PMS3003;52200;53.490;14.376;2024-03-07T03:27:13;37.75;22.00;12.50
65556;PMS3003;52200;53.490;14.376;2024-03-07T03:29:38;40.75;21.50;13.50
65556;PMS3003;52200;53.490;14.376;2024-03-07T03:32:05;32.80;21.80;13.60
65556;PMS3003;52200;53.490;14.376;2024-03-07T03:34:32;38.80;27.20;12.40
65556;PMS3003;52200;53.490;14.376;2024-03-07T03:36:58;41.00;27.20;13.20
65556;PMS3003;52200;53.490;14.376;2024-03-07T03:39:24;39.00;23.25;14.50
65556;PMS3003;52200;53.490;14.376;2024-03-07T03:41:51;40.60;23.20;14.20
65556;PMS3003;52200;53.490;14.376;2024-03-07T03:44:17;38.25;20.00;10.50
65556;PMS3003;52200;53.490;14.376;2024-03-07T03:46:43;38.25;23.00;12.50
65556;PMS3003;52200;53.490;14.376;2024-03-07T03:49:09;41.60;27.00;14.40
65556;PMS3003;52200;53.490;14.376;2024-03-07T03:51:35;32.80;21.80;12.00
65556;PMS3003;52200;53.490;14.376;2024-03-07T03:54:01;40.80;22.00;12.60
65556;PMS3003;52200;53.490;14.376;2024-03-07T03:56:26;38.50;25.50;12.00
65556;PMS3003;52200;53.490;14.376;2024-03-07T03:58:52;34.00;23.25;14.00
65556;PMS3003;52200;53.490;14.376;2024-03-07T04:01:17;29.50;20.50;10.50
65556;PMS3003;52200;53.490;14.376;2024-03-07T04:03:43;38.00;23.00;13.00
65556;PMS3003;52200;53.490;14.376;2024-03-07T04:06:11;31.20;20.80;12.00
65556;PMS3003;52200;53.490;14.376;2024-03-07T04:08:37;32.50;21.50;12.00
65556;PMS3003;52200;53.490;14.376;2024-03-07T04:11:03;36.00;18.75;10.50
65556;PMS3003;52200;53.490;14.376;2024-03-07T04:13:29;31.60;20.20;12.40
65556;PMS3003;52200;53.490;14.376;2024-03-07T04:15:55;33.60;17.60;8.60
65556;PMS3003;52200;53.490;14.376;2024-03-07T04:18:21;43.00;22.00;12.00
65556;PMS3003;52200;53.490;14.376;2024-03-07T04:20:46;37.50;24.50;12.00
65556;PMS3003;52200;53.490;14.376;2024-03-07T04:23:12;41.75;20.50;11.00
65556;PMS3003;52200;53.490;14.376;2024-03-07T04:25:37;29.25;21.00;12.00
65556;PMS3003;52200;53.490;14.376;2024-03-07T04:28:03;37.50;24.00;10.25
65556;PMS3003;52200;53.490;14.376;2024-03-07T04:30:28;47.00;24.50;14.25
65556;PMS3003;52200;53.490;14.376;2024-03-07T04:32:53;36.00;23.25;13.25
65556;PMS3003;52200;53.490;14.376;2024-03-07T04:35:19;42.00;27.25;16.50
65556;PMS3003;52200;53.490;14.376;2024-03-07T04:37:44;37.50;22.00;12.00
65556;PMS3003;52200;53.490;14.376;2024-03-07T04:40:10;36.75;24.50;17.00
65556;PMS3003;52200;53.490;14.376;2024-03-07T04:45:08;39.40;22.00;12.80
65556;PMS3003;52200;53.490;14.376;2024-03-07T04:47:35;41.20;24.80;12.60
65556;PMS3003;52200;53.490;14.376;2024-03-07T04:50:02;46.60;23.00;14.20
65556;PMS3003;52200;53.490;14.376;2024-03-07T04:52:27;40.75;25.75;15.00
65556;PMS3003;52200;53.490;14.376;2024-03-07T04:54:53;31.75;20.00;11.25
65556;PMS3003;52200;53.490;14.376;2024-03-07T04:57:18;44.25;24.75;13.50
65556;PMS3003;52200;53.490;14.376;2024-03-07T04:59:44;40.75;25.75;15.00
65556;PMS3003;52200;53.490;14.376;2024-03-07T05:02:09;39.75;22.00;11.50
65556;PMS3003;52200;53.490;14.376;2024-03-07T05:04:35;36.50;23.50;12.00
65556;PMS3003;52200;53.490;14.376;2024-03-07T05:07:00;33.50;20.00;12.75
65556;PMS3003;52200;53.490;14.376;2024-03-07T05:09:27;38.20;21.00;12.80
65556;PMS3003;52200;53.490;14.376;2024-03-07T05:11:53;40.60;22.20;10.60
65556;PMS3003;52200;53.490;14.376;2024-03-07T05:14:19;32.75;22.00;10.75
65556;PMS3003;52200;53.490;14.376;2024-03-07T05:16:45;32.60;19.20;11.40
65556;PMS3003;52200;53.490;14.376;2024-03-07T05:19:11;37.75;23.00;12.00
65556;PMS3003;52200;53.490;14.376;2024-03-07T05:21:36;44.00;26.75;11.75
65556;PMS3003;52200;53.490;14.376;2024-03-07T05:24:07;36.40;24.80;12.00
65556;PMS3003;52200;53.490;14.376;2024-03-07T05:26:36;36.25;24.00;14.75
65556;PMS3003;52200;53.490;14.376;2024-03-07T05:29:06;36.80;22.40;12.80
65556;PMS3003;52200;53.490;14.376;2024-03-07T05:31:35;37.60;21.80;12.40
65556;PMS3003;52200;53.490;14.376;2024-03-07T05:34:02;35.00;21.40;11.60
65556;PMS3003;52200;53.490;14.376;2024-03-07T05:36:32;36.20;22.40;12.60
65556;PMS3003;52200;53.490;14.376;2024-03-07T05:38:57;35.60;20.60;11.00
65556;PMS3003;52200;53.490;14.376;2024-03-07T05:41:23;43.00;28.75;14.25
65556;PMS3003;52200;53.490;14.376;2024-03-07T05:43:48;42.75;29.00;15.25
65556;PMS3003;52200;53.490;14.376;2024-03-07T05:46:16;41.20;27.20;15.60
65556;PMS3003;52200;53.490;14.376;2024-03-07T05:48:41;35.25;23.00;12.00
65556;PMS3003;52200;53.490;14.376;2024-03-07T05:51:07;36.25;25.25;12.75
65556;PMS3003;52200;53.490;14.376;2024-03-07T05:53:32;44.25;28.00;16.00
65556;PMS3003;52200;53.490;14.376;2024-03-07T05:55:57;40.50;24.25;15.00
65556;PMS3003;52200;53.490;14.376;2024-03-07T05:58:23;50.50;27.75;15.75
65556;PMS3003;52200;53.490;14.376;2024-03-07T06:00:48;38.75;25.00;12.25
65556;PMS3003;52200;53.490;14.376;2024-03-07T06:03:17;46.80;25.60;16.20
65556;PMS3003;52200;53.490;14.376;2024-03-07T06:05:45;44.00;28.20;16.60
65556;PMS3003;52200;53.490;14.376;2024-03-07T06:08:13;43.00;26.20;16.00
65556;PMS3003;52200;53.490;14.376;2024-03-07T06:10:45;47.00;27.40;13.60
65556;PMS3003;52200;53.490;14.376;2024-03-07T06:13:11;44.80;27.40;15.20
65556;PMS3003;52200;53.490;14.376;2024-03-07T06:15:38;37.20;24.00;14.60
65556;PMS3003;52200;53.490;14.376;2024-03-07T06:18:04;42.40;26.60;15.00
65556;PMS3003;52200;53.490;14.376;2024-03-07T06:20:36;37.20;21.60;11.00
65556;PMS3003;52200;53.490;14.376;2024-03-07T06:23:02;45.20;25.00;14.20
65556;PMS3003;52200;53.490;14.376;2024-03-07T06:25:33;46.20;33.60;18.00
65556;PMS3003;52200;53.490;14.376;2024-03-07T06:28:01;44.40;29.20;16.60
65556;PMS3003;52200;53.490;14.376;2024-03-07T06:30:37;42.20;25.60;16.60
65556;PMS3003;52200;53.490;14.376;2024-03-07T06:33:04;50.60;31.80;18.00
65556;PMS3003;52200;53.490;14.376;2024-03-07T06:35:30;49.40;30.20;18.60
65556;PMS3003;52200;53.490;14.376;2024-03-07T06:37:55;53.75;37.00;24.00
65556;PMS3003;52200;53.490;14.376;2024-03-07T06:40:21;58.00;41.75;20.50
65556;PMS3003;52200;53.490;14.376;2024-03-07T06:42:47;68.40;44.60;25.80
65556;PMS3003;52200;53.490;14.376;2024-03-07T06:45:17;57.60;41.40;23.40
65556;PMS3003;52200;53.490;14.376;2024-03-07T06:47:43;52.00;33.20;21.80
65556;PMS3003;52200;53.490;14.376;2024-03-07T06:50:09;58.40;37.20;20.80
65556;PMS3003;52200;53.490;14.376;2024-03-07T06:52:35;52.50;36.00;21.00
65556;PMS3003;52200;53.490;14.376;2024-03-07T06:55:03;52.50;35.50;21.25
65556;PMS3003;52200;53.490;14.376;2024-03-07T06:57:29;45.40;32.20;21.00
65556;PMS3003;52200;53.490;14.376;2024-03-07T06:59:54;52.50;35.00;22.00
65556;PMS3003;52200;53.490;14.376;2024-03-07T07:02:20;63.25;45.75;26.00
65556;PMS3003;52200;53.490;14.376;2024-03-07T07:04:45;68.50;45.00;26.25
65556;PMS3003;52200;53.490;14.376;2024-03-07T07:07:12;66.20;43.20;25.60
65556;PMS3003;52200;53.490;14.376;2024-03-07T07:09:39;57.40;40.40;23.60
65556;PMS3003;52200;53.490;14.376;2024-03-07T07:12:05;66.20;41.00;24.20
65556;PMS3003;52200;53.490;14.376;2024-03-07T07:14:31;57.40;40.40;24.60
65556;PMS3003;52200;53.490;14.376;2024-03-07T07:16:57;59.00;41.50;25.00
65556;PMS3003;52200;53.490;14.376;2024-03-07T07:19:24;57.40;40.40;23.80
65556;PMS3003;52200;53.490;14.376;2024-03-07T07:21:49;55.50;40.75;24.50
65556;PMS3003;52200;53.490;14.376;2024-03-07T07:24:18;59.60;40.60;24.40
65556;PMS3003;52200;53.490;14.376;2024-03-07T07:26:48;59.40;37.80;21.60
65556;PMS3003;52200;53.490;14.376;2024-03-07T07:29:15;59.00;36.80;22.00
65556;PMS3003;52200;53.490;14.376;2024-03-07T07:31:40;64.50;44.00;24.50
65556;PMS3003;52200;53.490;14.376;2024-03-07T07:34:06;57.50;35.50;19.00
65556;PMS3003;52200;53.490;14.376;2024-03-07T07:36:31;58.00;39.00;23.00
65556;PMS3003;52200;53.490;14.376;2024-03-07T07:38:57;51.25;36.25;22.00
65556;PMS3003;52200;53.490;14.376;2024-03-07T07:41:23;61.80;39.40;21.20
65556;PMS3003;52200;53.490;14.376;2024-03-07T07:43:48;61.00;36.75;20.50
65556;PMS3003;52200;53.490;14.376;2024-03-07T07:46:14;49.75;36.00;22.50
65556;PMS3003;52200;53.490;14.376;2024-03-07T07:48:41;63.20;41.00;26.20
65556;PMS3003;52200;53.490;14.376;2024-03-07T07:51:06;53.50;39.75;24.50
65556;PMS3003;52200;53.490;14.376;2024-03-07T07:53:32;64.00;41.25;25.00
65556;PMS3003;52200;53.490;14.376;2024-03-07T07:55:57;69.50;44.00;28.00
65556;PMS3003;52200;53.490;14.376;2024-03-07T07:58:23;61.00;42.25;24.75
65556;PMS3003;52200;53.490;14.376;2024-03-07T08:00:48;59.25;41.75;22.00
65556;PMS3003;52200;53.490;14.376;2024-03-07T08:03:13;62.00;43.50;26.00
65556;PMS3003;52200;53.490;14.376;2024-03-07T08:05:40;62.40;41.80;25.80
65556;PMS3003;52200;53.490;14.376;2024-03-07T08:08:06;58.00;38.60;22.20
65556;PMS3003;52200;53.490;14.376;2024-03-07T08:10:34;67.40;45.00;28.00
65556;PMS3003;52200;53.490;14.376;2024-03-07T08:13:01;69.00;43.00;24.40
65556;PMS3003;52200;53.490;14.376;2024-03-07T08:15:28;61.20;36.80;22.60
65556;PMS3003;52200;53.490;14.376;2024-03-07T08:17:55;62.00;42.60;25.00
65556;PMS3003;52200;53.490;14.376;2024-03-07T08:20:21;49.40;33.60;20.20
65556;PMS3003;52200;53.490;14.376;2024-03-07T08:22:48;56.60;39.00;21.40
65556;PMS3003;52200;53.490;14.376;2024-03-07T08:25:17;51.20;37.80;20.60
65556;PMS3003;52200;53.490;14.376;2024-03-07T08:27:44;49.60;35.60;21.20
65556;PMS3003;52200;53.490;14.376;2024-03-07T08:30:13;43.20;30.20;18.00
65556;PMS3003;52200;53.490;14.376;2024-03-07T08:32:46;60.60;41.80;24.60
65556;PMS3003;52200;53.490;14.376;2024-03-07T08:35:17;57.20;39.00;20.60
65556;PMS3003;52200;53.490;14.376;2024-03-07T08:37:43;52.50;37.50;20.75
65556;PMS3003;52200;53.490;14.376;2024-03-07T08:40:10;50.60;36.00;21.40
65556;PMS3003;52200;53.490;14.376;2024-03-07T08:42:41;54.80;32.40;20.00
65556;PMS3003;52200;53.490;14.376;2024-03-07T08:45:07;49.75;36.00;18.50
65556;PMS3003;52200;53.490;14.376;2024-03-07T08:47:35;45.20;32.80;20.00
65556;PMS3003;52200;53.490;14.376;2024-03-07T08:50:02;44.00;30.20;18.00
65556;PMS3003;52200;53.490;14.376;2024-03-07T08:52:36;57.60;33.40;19.20
65556;PMS3003;52200;53.490;14.376;2024-03-07T08:55:03;52.40;36.00;20.20
65556;PMS3003;52200;53.490;14.376;2024-03-07T08:57:29;50.00;33.20;19.00
65556;PMS3003;52200;53.490;14.376;2024-03-07T08:59:55;43.40;30.00;19.60
65556;PMS3003;52200;53.490;14.376;2024-03-07T09:02:21;48.00;34.25;19.75
65556;PMS3003;52200;53.490;14.376;2024-03-07T09:04:46;52.00;33.25;19.00
65556;PMS3003;52200;53.490;14.376;2024-03-07T09:07:12;46.25;32.00;17.25
65556;PMS3003;52200;53.490;14.376;2024-03-07T09:09:40;44.20;28.60;15.40
65556;PMS3003;52200;53.490;14.376;2024-03-07T09:12:08;44.40;23.80;14.00
65556;PMS3003;52200;53.490;14.376;2024-03-07T09:14:34;30.00;20.80;14.00
65556;PMS3003;52200;53.490;14.376;2024-03-07T09:17:00;35.40;22.40;12.20
65556;PMS3003;52200;53.490;14.376;2024-03-07T09:19:26;31.00;21.40;12.00
65556;PMS3003;52200;53.490;14.376;2024-03-07T09:21:53;31.40;19.20;10.00
65556;PMS3003;52200;53.490;14.376;2024-03-07T09:24:19;34.60;22.60;11.60
65556;PMS3003;52200;53.490;14.376;2024-03-07T09:26:48;35.20;20.60;11.00
65556;PMS3003;52200;53.490;14.376;2024-03-07T09:29:17;33.00;21.80;12.00
65556;PMS3003;52200;53.490;14.376;2024-03-07T09:31:48;30.40;21.20;12.60
65556;PMS3003;52200;53.490;14.376;2024-03-07T09:34:15;31.40;18.60;12.60
65556;PMS3003;52200;53.490;14.376;2024-03-07T09:36:41;33.00;23.40;13.60
65556;PMS3003;52200;53.490;14.376;2024-03-07T09:39:07;33.75;22.00;10.75
65556;PMS3003;52200;53.490;14.376;2024-03-07T09:41:34;38.00;21.40;11.20
65556;PMS3003;52200;53.490;14.376;2024-03-07T09:43:59;33.75;21.25;12.00
65556;PMS3003;52200;53.490;14.376;2024-03-07T09:46:26;34.60;22.00;12.40
65556;PMS3003;52200;53.490;14.376;2024-03-07T09:48:52;32.60;21.80;12.20
65556;PMS3003;52200;53.490;14.376;2024-03-07T09:51:19;32.00;21.80;13.00
65556;PMS3003;52200;53.490;14.376;2024-03-07T09:53:46;28.40;21.20;11.80
65556;PMS3003;52200;53.490;14.376;2024-03-07T09:56:16;30.80;18.20;10.40
65556;PMS3003;52200;53.490;14.376;2024-03-07T09:58:46;33.40;20.40;10.60
65556;PMS3003;52200;53.490;14.376;2024-03-07T10:01:14;27.80;19.20;11.20
65556;PMS3003;52200;53.490;14.376;2024-03-07T10:03:41;35.00;21.20;11.60
65556;PMS3003;52200;53.490;14.376;2024-03-07T10:06:10;33.40;20.20;11.80
65556;PMS3003;52200;53.490;14.376;2024-03-07T10:08:35;29.20;19.80;9.60
65556;PMS3003;52200;53.490;14.376;2024-03-07T10:11:01;28.60;18.00;12.00
65556;PMS3003;52200;53.490;14.376;2024-03-07T10:13:27;29.50;20.25;13.00
65556;PMS3003;52200;53.490;14.376;2024-03-07T10:15:53;34.20;18.00;10.20
65556;PMS3003;52200;53.490;14.376;2024-03-07T10:18:24;32.80;21.60;12.00
65556;PMS3003;52200;53.490;14.376;2024-03-07T10:20:53;32.40;18.80;11.60
65556;PMS3003;52200;53.490;14.376;2024-03-07T10:23:19;34.60;21.20;12.00
65556;PMS3003;52200;53.490;14.376;2024-03-07T10:25:46;32.20;19.40;10.00
65556;PMS3003;52200;53.490;14.376;2024-03-07T10:28:12;28.80;20.00;11.40
65556;PMS3003;52200;53.490;14.376;2024-03-07T10:30:40;32.25;20.00;12.00
65556;PMS3003;52200;53.490;14.376;2024-03-07T10:33:17;31.00;19.00;11.80
65556;PMS3003;52200;53.490;14.376;2024-03-07T10:35:45;25.80;18.00;9.60
65556;PMS3003;52200;53.490;14.376;2024-03-07T10:38:14;24.60;16.80;10.80
65556;PMS3003;52200;53.490;14.376;2024-03-07T10:40:39;30.00;17.50;9.00
65556;PMS3003;52200;53.490;14.376;2024-03-07T10:43:11;29.20;18.40;9.80
65556;PMS3003;52200;53.490;14.376;2024-03-07T10:45:43;28.00;18.60;9.20
65556;PMS3003;52200;53.490;14.376;2024-03-07T10:48:13;31.20;21.20;13.60
65556;PMS3003;52200;53.490;14.376;2024-03-07T11:01:10;31.20;19.20;10.40
65556;PMS3003;52200;53.490;14.376;2024-03-07T11:03:38;31.80;20.20;11.60
65556;PMS3003;52200;53.490;14.376;2024-03-07T11:06:05;26.00;16.80;11.60
65556;PMS3003;52200;53.490;14.376;2024-03-07T11:08:36;32.20;19.20;11.20
65556;PMS3003;52200;53.490;14.376;2024-03-07T11:11:02;30.00;17.80;9.00
65556;PMS3003;52200;53.490;14.376;2024-03-07T11:13:29;30.40;20.00;10.20
65556;PMS3003;52200;53.490;14.376;2024-03-07T11:15:55;32.20;18.40;10.60
65556;PMS3003;52200;53.490;14.376;2024-03-07T11:18:25;26.60;19.20;11.00
65556;PMS3003;52200;53.490;14.376;2024-03-07T11:20:51;29.20;18.00;9.00
65556;PMS3003;52200;53.490;14.376;2024-03-07T11:23:30;28.25;19.25;10.25
65556;PMS3003;52200;53.490;14.376;2024-03-07T11:26:09;29.80;19.40;10.00
65556;PMS3003;52200;53.490;14.376;2024-03-07T11:28:36;25.80;17.40;10.60
65556;PMS3003;52200;53.490;14.376;2024-03-07T11:34:12;28.40;18.60;10.00
65556;PMS3003;52200;53.490;14.376;2024-03-07T11:36:45;26.40;18.00;11.00
65556;PMS3003;52200;53.490;14.376;2024-03-07T11:42:09;29.60;18.00;9.80
65556;PMS3003;52200;53.490;14.376;2024-03-07T11:44:44;28.60;19.60;11.80
65556;PMS3003;52200;53.490;14.376;2024-03-07T11:47:12;27.20;15.20;9.20
65556;PMS3003;52200;53.490;14.376;2024-03-07T11:49:38;30.20;18.60;9.80
65556;PMS3003;52200;53.490;14.376;2024-03-07T11:52:04;27.25;15.50;9.25
65556;PMS3003;52200;53.490;14.376;2024-03-07T11:54:37;26.80;18.00;10.00
65556;PMS3003;52200;53.490;14.376;2024-03-07T11:57:06;28.60;17.80;9.20
65556;PMS3003;52200;53.490;14.376;2024-03-07T11:59:39;24.60;14.80;9.00
65556;PMS3003;52200;53.490;14.376;2024-03-07T12:02:05;30.00;17.80;8.60
65556;PMS3003;52200;53.490;14.376;2024-03-07T12:04:31;25.25;16.00;10.00
65556;PMS3003;52200;53.490;14.376;2024-03-07T12:06:59;27.60;17.20;10.00
65556;PMS3003;52200;53.490;14.376;2024-03-07T12:09:25;26.75;15.00;9.50
65556;PMS3003;52200;53.490;14.376;2024-03-07T12:11:51;20.60;14.40;9.40
65556;PMS3003;52200;53.490;14.376;2024-03-07T12:14:20;27.40;16.20;8.20
65556;PMS3003;52200;53.490;14.376;2024-03-07T12:16:46;29.40;19.80;9.00
65556;PMS3003;52200;53.490;14.376;2024-03-07T12:19:12;29.60;16.60;10.20
65556;PMS3003;52200;53.490;14.376;2024-03-07T12:21:42;33.00;20.80;12.80
65556;PMS3003;52200;53.490;14.376;2024-03-07T12:24:12;31.20;18.80;9.00
65556;PMS3003;52200;53.490;14.376;2024-03-07T12:26:38;27.20;19.00;11.60
65556;PMS3003;52200;53.490;14.376;2024-03-07T12:29:10;32.75;17.50;10.00
65556;PMS3003;52200;53.490;14.376;2024-03-07T12:31:41;26.00;17.20;10.80
65556;PMS3003;52200;53.490;14.376;2024-03-07T12:34:07;28.60;17.20;8.60
65556;PMS3003;52200;53.490;14.376;2024-03-07T12:36:37;29.20;19.00;9.40
65556;PMS3003;52200;53.490;14.376;2024-03-07T12:39:24;27.00;18.00;10.20
65556;PMS3003;52200;53.490;14.376;2024-03-07T12:41:51;30.40;17.60;9.60
65556;PMS3003;52200;53.490;14.376;2024-03-07T12:44:20;26.00;15.40;10.00
65556;PMS3003;52200;53.490;14.376;2024-03-07T12:46:47;26.80;18.40;9.80
65556;PMS3003;52200;53.490;14.376;2024-03-07T12:49:14;27.20;19.20;11.40
65556;PMS3003;52200;53.490;14.376;2024-03-07T12:51:41;28.60;15.00;9.00
65556;PMS3003;52200;53.490;14.376;2024-03-07T12:54:07;25.00;16.20;8.80
65556;PMS3003;52200;53.490;14.376;2024-03-07T12:56:35;28.80;20.40;11.60
65556;PMS3003;52200;53.490;14.376;2024-03-07T12:59:04;26.60;16.40;9.40
65556;PMS3003;52200;53.490;14.376;2024-03-07T13:01:34;20.80;14.40;8.00
65556;PMS3003;52200;53.490;14.376;2024-03-07T13:04:02;22.40;13.40;8.20
65556;PMS3003;52200;53.490;14.376;2024-03-07T13:06:29;28.40;18.60;8.40
65556;PMS3003;52200;53.490;14.376;2024-03-07T13:08:58;24.75;14.00;8.00
65556;PMS3003;52200;53.490;14.376;2024-03-07T13:11:23;25.60;16.40;8.00
65556;PMS3003;52200;53.490;14.376;2024-03-07T13:13:49;29.50;16.00;10.25
65556;PMS3003;52200;53.490;14.376;2024-03-07T13:16:14;26.00;17.75;11.25
65556;PMS3003;52200;53.490;14.376;2024-03-07T13:18:40;26.25;18.75;10.00
65556;PMS3003;52200;53.490;14.376;2024-03-07T13:21:05;25.75;16.25;9.00
65556;PMS3003;52200;53.490;14.376;2024-03-07T13:23:35;28.20;19.60;9.20
65556;PMS3003;52200;53.490;14.376;2024-03-07T13:26:04;26.60;16.80;10.20
65556;PMS3003;52200;53.490;14.376;2024-03-07T13:28:33;24.20;16.40;8.60
65556;PMS3003;52200;53.490;14.376;2024-03-07T13:30:59;27.75;21.25;12.00
65556;PMS3003;52200;53.490;14.376;2024-03-07T13:33:24;32.00;16.50;10.00
65556;PMS3003;52200;53.490;14.376;2024-03-07T13:35:52;28.40;17.80;9.80
65556;PMS3003;52200;53.490;14.376;2024-03-07T13:38:17;28.00;15.00;9.00
65556;PMS3003;52200;53.490;14.376;2024-03-07T13:40:43;26.20;15.00;9.80
65556;PMS3003;52200;53.490;14.376;2024-03-07T13:43:09;35.25;23.50;13.00
65556;PMS3003;52200;53.490;14.376;2024-03-07T13:45:35;30.75;22.00;15.00
65556;PMS3003;52200;53.490;14.376;2024-03-07T13:48:05;30.40;21.60;11.00
65556;PMS3003;52200;53.490;14.376;2024-03-07T13:50:31;32.60;22.00;11.60
65556;PMS3003;52200;53.490;14.376;2024-03-07T13:52:58;25.20;16.80;10.00
65556;PMS3003;52200;53.490;14.376;2024-03-07T13:55:46;27.20;18.00;9.40